Nearby METAR Reports

 

KSJC - San Jose, California, USA
Distance from station: NE 14km
Actualización: 30/10/2020 06:53
Despejado
Despejado
 Viento del calm
Viento: Calma
Temperatura: 14°C
Rocío: 6°C
Humedad: 59%
Barómetro: 1017.6 hPa
Clouds: Despejado
Visibility: 16 km
2020/10/30 05:53 KSJC 300553Z 00000KT 10SM CLR 14/06 A3005 RMK AO2 SLP174 T01440056 10239 20139 51007
KNUQ - Moffett Nas/Mtn, California, USA
Distance from station: N 14km
Actualización: 30/10/2020 07:30
Muy nuboso
Muy nuboso
 Viento del calm
Viento: Calma
Temperatura: 13°C
Rocío: 7°C
Humedad: 67%
Barómetro: 1017.6 hPa
Clouds: Muy nuboso
Visibility: 16 km
Cloud details: Parcialmente nuboso 457 m
Muy nuboso 640 m
Muy nuboso 823 m
2020/10/30 06:30 KNUQ 300630Z AUTO 00000KT 10SM SCT015 BKN021 BKN027 13/07 A3005 RMK AO2
KPAO - Palo Alto, California, USA
Distance from station: NNO 23km
Actualización: 30/10/2020 02:47
NOT Current
Despejado
Despejado
 Viento del NO
Viento: NO 7 km/h
Temperatura: 14°C
Rocío: 4°C
Humedad: 51%
Barómetro: 1016.3 hPa
Clouds: Despejado
Visibility: 16 km
2020/10/30 01:47 KPAO 300147Z 32004KT 10SM SKC 14/04 A3001 RMK LAST
 
KRHV - San Jose/Reid, California, USA
Distance from station: ENE 19km
Actualización: 30/10/2020 05:47
NOT Current
Despejado
Despejado
 Viento del SE
Viento: SE 6 km/h
Temperatura: 15°C
Rocío: 6°C
Humedad: 55%
Barómetro: 1017.3 hPa
Clouds: Despejado
Visibility: 16 km
2020/10/30 04:47 KRHV 300447Z 14003KT 10SM SKC 15/06 A3004 RMK LAST
KOAK - Oakland, California, USA
Distance from station: NNO 50km
Actualización: 30/10/2020 06:53
Despejado
Despejado
 Viento del calm
Viento: Calma
Temperatura: 14°C
Rocío: 8°C
Humedad: 67%
Barómetro: 1017.6 hPa
Clouds: Despejado
Visibility: 16 km
2020/10/30 05:53 KOAK 300553Z 00000KT 10SM CLR 14/08 A3005 RMK AO2 SLP175 T01390083 10222 20128 53008
KSQL - San Carlos Airpo, California, USA
Distance from station: NO 34km
Actualización: 30/10/2020 07:35
Despejado
Despejado
 Viento del calm
Viento: Calma
Temperatura: 13°C
Rocío: 7°C
Humedad: 67%
Barómetro: 1017.9 hPa
Clouds: Despejado
Visibility: 16 km
2020/10/30 06:35 KSQL 300635Z AUTO 00000KT 10SM CLR 13/07 A3006 RMK AO2
 
KSFO - San Francisco, California, USA
Distance from station: NO 49km
Actualización: 30/10/2020 06:56
Despejado
Despejado
 Viento del O
Viento: O 11 km/h
Temperatura: 13°C
Rocío: 7°C
Humedad: 67%
Barómetro: 1017.6 hPa
Clouds: Despejado
Visibility: 16 km
2020/10/30 05:56 KSFO 300556Z 28006KT 10SM CLR 13/07 A3005 RMK AO2 SLP174 T01330067 10194 20128 53009
KE16 - San Martin, California, USA
Distance from station: ESE 43km
Actualización: 30/10/2020 07:35
Cubierto
Cubierto
 Viento del calm
Viento: Calma
Temperatura: 9°C
Rocío: 2°C
Humedad: 62%
Barómetro: 1018.6 hPa
Clouds: Cubierto
Visibility: 16 km
Cloud details: Muy nuboso 640 m
Cubierto 1676 m
2020/10/30 06:35 KE16 300635Z AUTO 00000KT 10SM BKN021 OVC055 09/02 A3008 RMK AO2 PWINO PNO
KWVI - Watsonville, California, USA
Distance from station: SSE 44km
Actualización: 30/10/2020 06:53
Niebla, Cubierto
Niebla, Cubierto
 Viento del calm
Viento: Calma
Temperatura: 11°C
Rocío: 11°C
Humedad: 100%
Barómetro: 1018.3 hPa
Resumen: Niebla
Clouds: Cubierto
Visibility: 0.4 km
Cloud details: Cubierto 61 m
2020/10/30 05:53 KWVI 300553Z AUTO 00000KT 1/4SM FG VV002 11/11 A3007 RMK AO2 SLP182 T01110111 10194 20111 53006
 
KHAF - Half Moon Bay, California, USA
Distance from station: ONO 50km
Actualización: 30/10/2020 07:35
Lluvia débil, Cubierto
Lluvia débil, Cubierto
 Viento del calm
Viento: Calma
Temperatura: 6°C
Rocío: 4°C
Humedad: 87%
Barómetro: 1018.3 hPa
Resumen: Lluvia débil
Clouds: Cubierto
Visibility: 16 km
Cloud details: Cubierto 183 m
2020/10/30 06:35 KHAF 300635Z AUTO 00000KT 10SM -RA OVC006 06/04 A3007 RMK AO2
KHWD - Hayward, California, USA
Distance from station: N 44km
Actualización: 30/10/2020 06:54
Despejado
Despejado
 Viento del calm
Viento: Calma
Temperatura: 14°C
Rocío: 7°C
Humedad: 63%
Barómetro: 1017.6 hPa
Clouds: Despejado
Visibility: 16 km
2020/10/30 05:54 KHWD 300554Z AUTO 00000KT 10SM CLR 14/07 A3005 RMK AO2 SLP184 T01390072 10222 20139 53009
KLVK - Livermore, California, USA
Distance from station: NNE 51km
Actualización: 30/10/2020 06:53
Smoke, Despejado
Smoke, Despejado
 Viento del calm
Viento: Calma
Temperatura: 12°C
Rocío: 1°C
Humedad: 47%
Barómetro: 1017.3 hPa
Resumen: Smoke
Clouds: Despejado
Visibility: 16 km
2020/10/30 05:53 KLVK 300553Z AUTO 00000KT 10SM FU CLR 12/01 A3004 RMK AO2 SLP171 T01170006 10250 20117 53010